Home > Products > Valid Products > TAF

000
FTUS43 KTOP 190500
TAFTOP
TAF
KTOP 190520Z 1906/2006 14009KT P6SM FEW250
     FM191500 18016G23KT P6SM BKN250
     FM200100 16010KT P6SM BKN250=



000
FTUS43 KTOP 182300
TAFTOP
TAF
KTOP 182320Z 1900/1924 14009KT P6SM FEW250
     FM191500 18015G22KT P6SM BKN250=



000
FTUS43 KTOP 181700
TAFTOP
TAF
KTOP 181731Z 1818/1918 15010KT P6SM SKC
     FM191500 18014G22KT P6SM SCT250=



000
FTUS43 KTOP 181100
TAFTOP
TAF
KTOP 181124Z 1812/1912 12002KT 3SM BR SCT200
      TEMPO 1812/1814 1/2SM FG
     FM181400 15005KT 6SM HZ FEW200
     FM181800 15010KT P6SM SKC=



000
FTUS43 KTOP 181000 AAA
TAFTOP
TAF AMD
KTOP 181030Z 1811/1906 12002KT 3SM BR SKC
      TEMPO 1811/1813 1/4SM FG
     FM181500 15005KT 6SM HZ FEW250
     FM181800 15009KT P6SM SKC=



000
FTUS43 KTOP 180500
TAFTOP
TAF
KTOP 180520Z 1806/1906 12002KT 4SM FU HZ SKC
     FM181500 15005KT 6SM HZ FEW250
     FM181800 15009KT P6SM SKC=



000
FTUS43 KTOP 180100 AAA
TAFTOP
TAF AMD
KTOP 180107Z 1801/1824 12002KT 4SM FU HZ SKC
     FM181500 15008KT P6SM FEW250=



000
FTUS43 KTOP 172300
TAFTOP
TAF
KTOP 172320Z 1800/1824 12002KT P6SM SKC
     FM181500 15008KT P6SM FEW250=



000
FTUS43 KTOP 171700
TAFTOP
TAF
KTOP 171726Z 1718/1818 02008KT P6SM BKN090
     FM180000 12002KT P6SM SKC
     FM181500 15008KT P6SM FEW250=



000
FTUS43 KTOP 171400 AAA
TAFTOP
TAF AMD
KTOP 171435Z 1715/1812 36011KT P6SM BKN020
     FM171700 02006KT P6SM VCSH BKN090
     FM180000 12003KT P6SM SKC=



000
FTUS43 KTOP 171100
TAFTOP
TAF
KTOP 171127Z 1712/1812 34010KT P6SM BKN100
      TEMPO 1712/1714 BKN020
     FM171800 02006KT P6SM VCSH BKN090
     FM180000 12003KT P6SM SKC=



000
FTUS43 KTOP 170500
TAFTOP
TAF
KTOP 170520Z 1706/1806 34008KT P6SM BKN100
     FM171800 02006KT P6SM SCT100
     FM180000 11005KT P6SM SCT100=



000
FTUS43 KTOP 162300 RRA
TAFTOP
TAF
KTOP 162348Z 1700/1724 21014G23KT P6SM SCT150
     FM170100 31012KT P6SM BKN120
     FM170700 34006KT P6SM BKN080=



000
FTUS43 KTOP 161700
TAFTOP
TAF
KTOP 161720Z 1618/1718 19027G37KT P6SM BKN180
     FM162200 21014G23KT P6SM SCT150
     FM170100 31012KT P6SM BKN120
     FM170700 34006KT P6SM BKN080=



000
FTUS43 KTOP 161100
TAFTOP
TAF
KTOP 161123Z 1612/1712 17015G24KT P6SM SCT200
     FM161400 19027G36KT P6SM BKN180
     FM162200 21014G23KT P6SM SCT080
     FM170100 29006KT P6SM BKN080=



000
FTUS43 KTOP 160900 AAA
TAFTOP
TAF AMD
KTOP 160909Z 1609/1706 17013KT P6SM BKN200 WS004/18055KT
     FM161300 19021G31KT P6SM BKN200
     FM170200 35013G18KT P6SM BKN080=



    US Dept of Commerce
    National Oceanic and Atmospheric Administration
    National Weather Service
    1325 East West Highway
    Silver Spring, MD 20910
    Page Author: NWS Internet Services Team
Disclaimer
Information Quality
Credits
Glossary
Privacy Policy
Freedom of Information Act (FOIA)
About Us
Career Opportunities